createdAt,value
2017-04-01T00:02:11.582Z,72.146
2017-04-01T00:05:17.169Z,72.257
2017-04-01T00:08:22.943Z,72.576
2017-04-01T00:11:28.612Z,73.037
2017-04-01T00:14:34.261Z,73.472
2017-04-01T00:17:40.096Z,73.750
2017-04-01T00:20:45.340Z,73.932
2017-04-01T00:23:50.994Z,73.329
2017-04-01T00:26:56.612Z,73.213
2017-04-01T00:30:02.357Z,74.314
2017-04-01T00:33:07.948Z,73.980
2017-04-01T00:36:13.809Z,74.270
2017-04-01T00:39:19.317Z,74.231
2017-04-01T00:42:24.984Z,74.090
2017-04-01T00:45:30.038Z,74.730
2017-04-01T00:48:35.602Z,74.563
2017-04-01T00:51:41.053Z,74.471
2017-04-01T00:54:46.377Z,74.220
2017-04-01T00:57:52.128Z,74.685
2017-04-01T01:00:57.799Z,74.557
2017-04-01T01:07:09.132Z,73.627
2017-04-01T01:10:14.846Z,74.056
2017-04-01T01:13:20.615Z,74.242
2017-04-01T01:16:26.222Z,74.254
2017-04-01T01:19:31.780Z,74.652
2017-04-01T01:22:37.534Z,74.493
2017-04-01T01:25:43.022Z,74.247
2017-04-01T01:28:48.603Z,73.933
2017-04-01T01:31:54.191Z,74.187
2017-04-01T01:34:59.883Z,74.001
2017-04-01T01:38:05.389Z,73.607
2017-04-01T01:44:17.187Z,74.414
2017-04-01T01:47:22.757Z,74.516
2017-04-01T01:53:34.165Z,73.887
2017-04-01T01:56:39.733Z,73.825
2017-04-01T01:59:45.437Z,73.641
2017-04-01T02:02:50.690Z,73.704
2017-04-01T02:05:56.201Z,73.552
2017-04-01T02:09:01.755Z,74.694
2017-04-01T02:12:06.995Z,75.135
2017-04-01T02:15:12.648Z,75.290
2017-04-01T02:18:17.906Z,75.813
2017-04-01T02:21:23.622Z,76.081
2017-04-01T02:24:29.188Z,76.549
2017-04-01T02:27:34.749Z,76.666
2017-04-01T02:30:40.224Z,76.052
2017-04-01T02:33:45.891Z,75.258
2017-04-01T02:36:51.303Z,74.778
2017-04-01T02:39:56.935Z,75.006
2017-04-01T02:43:02.323Z,75.345
2017-04-01T02:46:07.877Z,75.723
2017-04-01T02:49:13.504Z,75.794
2017-04-01T02:52:18.723Z,75.668
2017-04-01T02:55:24.399Z,75.448
2017-04-01T02:58:29.870Z,75.715
2017-04-01T03:01:35.328Z,76.315
2017-04-01T03:04:40.774Z,76.608
2017-04-01T03:07:46.226Z,77.220
2017-04-01T03:10:51.808Z,77.813
2017-04-01T03:13:57.372Z,77.731
2017-04-01T03:17:03.118Z,77.470
2017-04-01T03:20:08.676Z,77.753
2017-04-01T03:23:14.141Z,77.938
2017-04-01T03:26:19.499Z,77.871
2017-04-01T03:29:24.977Z,77.343
2017-04-01T03:32:30.505Z,76.841
2017-04-01T03:35:36.013Z,76.872
2017-04-01T03:38:41.439Z,76.849
2017-04-01T03:41:46.958Z,76.937
2017-04-01T03:44:52.009Z,77.308
2017-04-01T03:47:57.513Z,77.707
2017-04-01T03:51:02.884Z,77.827
2017-04-01T03:54:08.379Z,77.525
2017-04-01T03:57:13.957Z,77.487
2017-04-01T04:00:19.561Z,77.682
2017-04-01T04:06:29.905Z,78.523
2017-04-01T04:09:35.375Z,78.931
2017-04-01T04:12:40.880Z,79.330
2017-04-01T04:15:46.416Z,79.648
2017-04-01T04:21:56.825Z,79.663
2017-04-01T04:25:02.315Z,79.929
2017-04-01T04:28:07.910Z,79.843
2017-04-01T04:31:13.064Z,79.337
2017-04-01T04:34:18.710Z,79.556
2017-04-01T04:37:24.195Z,78.754
2017-04-01T04:43:34.564Z,78.817
2017-04-01T04:46:40.157Z,79.193
2017-04-01T04:49:45.671Z,79.295
2017-04-01T04:52:51.169Z,79.267
2017-04-01T04:55:56.683Z,78.833
2017-04-01T04:59:02.310Z,79.183
2017-04-01T05:02:07.816Z,79.458
2017-04-01T05:05:12.710Z,79.576
2017-04-01T05:08:18.120Z,79.312
2017-04-01T05:11:23.545Z,79.716
2017-04-01T05:14:29.049Z,79.687
2017-04-01T05:17:33.600Z,80.288
2017-04-01T05:20:39.231Z,80.057
2017-04-01T05:23:44.670Z,80.131
2017-04-01T05:26:49.826Z,79.899
2017-04-01T05:29:55.386Z,80.410
2017-04-01T05:33:01.022Z,80.596
2017-04-01T05:36:06.390Z,80.958
2017-04-01T05:39:11.854Z,81.530
2017-04-01T05:42:17.464Z,81.557
2017-04-01T05:45:23.013Z,81.421
2017-04-01T05:48:28.620Z,81.437
2017-04-01T05:51:34.179Z,81.305
2017-04-01T05:54:39.672Z,81.634
2017-04-01T05:57:45.329Z,81.658
2017-04-01T06:00:50.991Z,81.769
2017-04-01T06:03:56.027Z,81.951
2017-04-01T06:07:01.650Z,81.902
2017-04-01T06:10:07.123Z,81.616
2017-04-01T06:13:12.756Z,82.043
2017-04-01T06:16:18.433Z,82.252
2017-04-01T06:19:24.054Z,82.700
2017-04-01T06:22:29.654Z,83.157
2017-04-01T06:25:35.262Z,82.776
2017-04-01T06:28:40.808Z,82.319
2017-04-01T06:31:46.457Z,82.519
2017-04-01T06:37:58.016Z,82.126
2017-04-01T06:41:03.776Z,81.938
2017-04-01T06:44:08.951Z,82.014
2017-04-01T06:47:14.631Z,81.911
2017-04-01T06:50:21.142Z,81.847
2017-04-01T06:53:26.718Z,82.392
2017-04-01T06:56:32.237Z,82.769
2017-04-01T06:59:37.852Z,82.752
2017-04-01T07:02:43.530Z,82.690
2017-04-01T07:05:49.261Z,82.053
2017-04-01T07:08:54.899Z,82.609
2017-04-01T07:12:00.406Z,82.416
2017-04-01T07:15:06.157Z,82.491
2017-04-01T07:21:17.811Z,82.054
2017-04-01T07:24:23.413Z,81.500
2017-04-01T07:27:29.061Z,81.914
2017-04-01T07:30:34.559Z,81.313
2017-04-01T07:33:40.057Z,81.766
2017-04-01T07:36:45.676Z,81.429
2017-04-01T07:39:51.497Z,81.645
2017-04-01T07:42:57.148Z,81.205
2017-04-01T07:46:02.893Z,80.730
2017-04-01T07:49:08.602Z,80.717
2017-04-01T07:55:20.411Z,80.928
2017-04-01T07:58:26.074Z,81.065
2017-04-01T08:01:31.895Z,81.033
2017-04-01T08:04:37.706Z,80.327
2017-04-01T08:07:43.474Z,80.041
2017-04-01T08:10:49.232Z,79.041
2017-04-01T08:13:54.986Z,78.564
2017-04-01T08:17:00.128Z,77.841
2017-04-01T08:20:05.974Z,78.092
2017-04-01T08:23:11.588Z,77.266
2017-04-01T08:26:17.387Z,76.687
2017-04-01T08:29:23.118Z,76.371
2017-04-01T08:32:28.740Z,76.396
2017-04-01T08:35:34.442Z,75.896
2017-04-01T08:38:40.167Z,76.000
2017-04-01T08:41:45.942Z,75.696
2017-04-01T08:44:51.721Z,75.332
2017-04-01T08:47:57.565Z,74.925
2017-04-01T08:51:03.061Z,74.750
2017-04-01T08:54:08.889Z,74.474
2017-04-01T08:57:14.087Z,74.081
2017-04-01T09:03:25.922Z,72.053
2017-04-01T09:06:31.730Z,72.018
2017-04-01T09:09:37.672Z,70.675
2017-04-01T09:12:43.341Z,71.886
2017-04-01T09:15:49.316Z,70.526
2017-04-01T09:18:55.160Z,68.912
2017-04-01T09:22:01.006Z,67.768
2017-04-01T09:25:06.881Z,67.902
2017-04-01T09:28:12.863Z,67.576
2017-04-01T09:31:18.787Z,67.468
2017-04-01T09:34:24.588Z,68.360
2017-04-01T09:37:30.439Z,67.682
2017-04-01T09:40:36.334Z,67.759
2017-04-01T09:43:42.231Z,67.508
2017-04-01T09:46:48.225Z,65.555
2017-04-01T09:49:54.113Z,65.189
2017-04-01T09:53:00.098Z,65.122
2017-04-01T09:56:05.934Z,64.083
2017-04-01T09:59:11.977Z,62.525
2017-04-01T10:02:17.716Z,62.143
2017-04-01T10:05:23.568Z,61.697
2017-04-01T10:08:29.535Z,60.374
2017-04-01T10:11:35.558Z,58.669
2017-04-01T10:14:41.559Z,57.545
2017-04-01T10:17:47.100Z,57.768
2017-04-01T10:20:53.160Z,55.861
2017-04-01T10:23:59.168Z,54.700
2017-04-01T10:27:05.395Z,53.443
2017-04-01T10:30:11.449Z,53.421
2017-04-01T10:33:17.507Z,51.167
2017-04-01T10:36:23.628Z,51.493
2017-04-01T10:39:22.238Z,49.910
2017-04-01T10:42:36.515Z,47.371
2017-04-01T10:45:42.769Z,46.623
2017-04-01T10:48:48.855Z,44.747
2017-04-01T10:51:55.016Z,45.360
2017-04-01T10:55:01.201Z,44.949
2017-04-01T10:58:07.133Z,45.235
2017-04-01T11:01:13.330Z,44.237
2017-04-01T11:04:19.496Z,42.274
2017-04-01T11:07:25.841Z,43.926
2017-04-01T11:10:31.885Z,43.248
2017-04-01T11:13:37.869Z,42.356
2017-04-01T11:16:44.129Z,42.234
2017-04-01T11:19:50.422Z,41.529
2017-04-01T11:22:56.619Z,41.606
2017-04-01T11:26:02.917Z,41.022
2017-04-01T11:29:09.272Z,41.687
2017-04-01T11:32:15.598Z,41.416
2017-04-01T11:35:21.659Z,41.458
2017-04-01T11:38:27.827Z,41.250
2017-04-01T11:41:33.980Z,41.977
2017-04-01T11:44:40.163Z,41.444
2017-04-01T11:47:46.422Z,40.035
2017-04-01T11:50:52.784Z,40.047
2017-04-01T11:53:58.938Z,41.158
2017-04-01T11:57:05.233Z,39.906
2017-04-01T12:00:11.489Z,40.018
2017-04-01T12:03:17.704Z,40.188
2017-04-01T12:06:24.053Z,39.864
2017-04-01T12:09:30.519Z,37.575
2017-04-01T12:12:37.891Z,38.948
2017-04-01T12:15:44.256Z,38.620
2017-04-01T12:18:50.301Z,38.768
2017-04-01T12:21:56.643Z,39.837
2017-04-01T12:25:03.047Z,38.339
2017-04-01T12:28:09.215Z,38.795
2017-04-01T12:31:15.625Z,38.125
2017-04-01T12:34:21.517Z,37.811
2017-04-01T12:37:27.812Z,40.133
2017-04-01T12:40:34.168Z,38.049
2017-04-01T12:43:40.456Z,39.241
2017-04-01T12:46:46.713Z,39.346
2017-04-01T12:49:53.034Z,38.039
2017-04-01T12:52:59.356Z,38.387
2017-04-01T12:56:05.679Z,37.103
2017-04-01T12:59:11.771Z,36.829
2017-04-01T13:02:18.182Z,36.833
2017-04-01T13:05:24.532Z,35.845
2017-04-01T13:08:30.844Z,37.177
2017-04-01T13:11:37.334Z,36.404
2017-04-01T13:14:43.743Z,36.082
2017-04-01T13:17:50.141Z,37.373
2017-04-01T13:20:56.265Z,36.200
2017-04-01T13:24:03.034Z,37.720
2017-04-01T13:27:09.298Z,37.872
2017-04-01T13:30:15.544Z,37.541
2017-04-01T13:33:21.828Z,37.854
2017-04-01T13:36:28.133Z,37.583
2017-04-01T13:39:34.412Z,38.433
2017-04-01T13:42:40.875Z,37.868
2017-04-01T13:45:47.244Z,37.439
2017-04-01T13:48:53.526Z,37.625
2017-04-01T13:51:59.785Z,38.380
2017-04-01T13:55:06.041Z,39.048
2017-04-01T13:58:12.187Z,40.139
2017-04-01T14:01:18.481Z,41.585
2017-04-01T14:04:24.810Z,40.962
2017-04-01T14:07:30.930Z,42.070
2017-04-01T14:10:37.181Z,42.090
2017-04-01T14:13:43.490Z,41.660
2017-04-01T14:16:49.839Z,41.392
2017-04-01T14:19:56.137Z,42.028
2017-04-01T14:23:02.471Z,42.265
2017-04-01T14:26:08.780Z,41.484
2017-04-01T14:29:15.110Z,41.776
2017-04-01T14:32:21.522Z,42.417
2017-04-01T14:35:27.847Z,41.912
2017-04-01T14:38:34.241Z,41.599
2017-04-01T14:41:40.730Z,40.345
2017-04-01T14:44:47.062Z,42.345
2017-04-01T14:47:53.014Z,42.491
2017-04-01T14:50:59.329Z,43.407
2017-04-01T14:54:04.862Z,41.497
2017-04-01T14:57:11.248Z,42.991
2017-04-01T15:00:17.361Z,42.140
2017-04-01T15:03:23.688Z,42.836
2017-04-01T15:06:30.025Z,42.442
2017-04-01T15:12:42.281Z,43.023
2017-04-01T15:15:48.582Z,43.018
2017-04-01T15:18:54.771Z,44.808
2017-04-01T15:22:01.017Z,43.740
2017-04-01T15:25:07.089Z,44.871
2017-04-01T15:31:18.420Z,45.697
2017-04-01T15:34:24.685Z,45.461
2017-04-01T15:37:30.737Z,46.135
2017-04-01T15:40:36.905Z,46.352
2017-04-01T15:43:43.150Z,46.351
2017-04-01T16:39:20.215Z,46.405
2017-04-01T16:54:44.194Z,46.579
2017-04-01T16:57:49.442Z,46.708
2017-04-01T17:00:55.445Z,46.931
2017-04-01T17:25:37.660Z,47.913
2017-04-01T17:53:26.597Z,51.886
2017-04-01T17:56:32.571Z,52.551
2017-04-01T18:36:45.019Z,56.193
2017-04-01T18:55:17.732Z,57.083
2017-04-01T19:07:39.754Z,57.683
2017-04-01T19:20:00.082Z,57.935
2017-04-01T19:23:06.390Z,57.969
2017-04-01T19:38:31.601Z,57.985
2017-04-01T19:44:41.976Z,57.464
2017-04-01T19:47:47.732Z,57.480
2017-04-01T20:00:09.204Z,58.689
2017-04-01T20:06:19.679Z,58.075
2017-04-01T20:15:35.140Z,58.143
2017-04-01T20:21:45.787Z,58.356
2017-04-01T20:24:51.386Z,58.740
2017-04-01T20:27:57.332Z,59.016
2017-04-01T20:34:07.786Z,60.325
2017-04-01T20:40:18.279Z,61.051
2017-04-01T20:43:24.163Z,61.208
2017-04-01T20:49:34.720Z,60.827
2017-04-01T20:58:50.009Z,60.818
2017-04-01T21:01:55.598Z,61.381
2017-04-01T21:05:01.362Z,62.046
2017-04-01T21:29:41.766Z,63.614
2017-04-01T21:32:47.462Z,63.682
2017-04-01T22:34:30.837Z,66.811
2017-04-01T23:48:32.986Z,69.988
